createdAt,value
2019-05-14T00:00:07.529Z,6.86
2019-05-14T00:05:15.120Z,5.59
2019-05-14T00:10:22.750Z,6.90
2019-05-14T00:15:32.281Z,7.75
2019-05-14T00:20:37.509Z,5.94
2019-05-14T00:25:45.124Z,5.71
2019-05-14T00:30:52.800Z,5.76
2019-05-14T00:37:11.884Z,5.83
2019-05-14T00:42:21.549Z,5.54
2019-05-14T00:47:26.637Z,4.73
2019-05-14T00:52:34.289Z,6.27
2019-05-14T00:57:42.489Z,6.82
2019-05-14T01:02:51.569Z,6.99
2019-05-14T01:07:56.223Z,6.50
2019-05-14T01:13:03.890Z,6.60
2019-05-14T01:18:11.529Z,6.58
2019-05-14T01:23:21.482Z,6.02
2019-05-14T01:28:26.254Z,6.25
2019-05-14T01:33:33.890Z,6.14
2019-05-14T01:38:41.827Z,5.40
2019-05-14T01:43:50.877Z,3.79
2019-05-14T01:48:55.764Z,4.45
2019-05-14T01:54:03.422Z,4.90
2019-05-14T01:59:12.131Z,4.16
2019-05-14T02:04:18.173Z,5.15
2019-05-14T02:09:25.752Z,5.71
2019-05-14T02:14:33.511Z,5.01
2019-05-14T02:19:42.492Z,5.65
2019-05-14T02:24:48.321Z,5.48
2019-05-14T02:29:55.907Z,7.93
2019-05-14T02:35:03.583Z,6.05
2019-05-14T02:40:11.170Z,5.45
2019-05-14T02:45:19.763Z,6.28
2019-05-14T02:50:29.264Z,6.14
2019-05-14T02:55:35.331Z,5.74
2019-05-14T03:00:42.935Z,5.09
2019-05-14T03:05:50.572Z,4.14
2019-05-14T03:11:00.220Z,4.72
2019-05-14T03:16:20.735Z,6.85
2019-05-14T03:21:12.451Z,4.95
2019-05-14T03:26:20.128Z,5.52
2019-05-14T03:31:32.954Z,6.69
2019-05-14T03:36:35.643Z,5.39
2019-05-14T03:41:42.237Z,5.04
2019-05-14T03:46:55.358Z,5.32
2019-05-14T03:52:00.085Z,6.40
2019-05-14T03:57:04.268Z,6.17
2019-05-14T04:02:11.878Z,6.19
2019-05-14T04:07:19.653Z,7.15
2019-05-14T04:12:29.350Z,7.57
2019-05-14T04:17:38.756Z,6.60
2019-05-14T04:22:41.511Z,7.46
2019-05-14T04:27:49.569Z,6.57
2019-05-14T04:32:59.203Z,6.87
2019-05-14T04:38:03.457Z,8.11
2019-05-14T04:43:11.081Z,6.27
2019-05-14T04:48:28.956Z,6.42
2019-05-14T04:53:25.913Z,7.27
2019-05-14T04:58:33.552Z,7.55
2019-05-14T05:03:41.153Z,7.17
2019-05-14T05:08:49.697Z,7.44
2019-05-14T05:13:56.015Z,7.64
2019-05-14T05:19:03.713Z,8.47
2019-05-14T05:24:11.287Z,7.83
2019-05-14T05:29:18.962Z,9.07
2019-05-14T05:34:28.245Z,7.67
2019-05-14T05:39:33.713Z,7.41
2019-05-14T05:44:41.305Z,7.77
2019-05-14T05:49:49.006Z,6.47
2019-05-14T05:54:58.379Z,5.84
2019-05-14T06:00:03.677Z,7.31
2019-05-14T06:05:11.275Z,7.61
2019-05-14T06:10:18.999Z,7.15
2019-05-14T06:15:42.834Z,7.13
2019-05-14T06:20:33.813Z,7.07
2019-05-14T06:25:41.428Z,8.89
2019-05-14T06:30:49.104Z,7.70
2019-05-14T06:35:58.942Z,7.57
2019-05-14T06:41:03.834Z,7.36
2019-05-14T06:46:11.445Z,6.85
2019-05-14T06:51:20.093Z,6.22
2019-05-14T06:56:28.233Z,6.31
2019-05-14T07:01:33.454Z,7.61
2019-05-14T07:06:41.070Z,7.71
2019-05-14T07:11:49.322Z,6.50
2019-05-14T07:16:58.571Z,7.77
2019-05-14T07:22:03.208Z,7.64
2019-05-14T07:27:10.818Z,9.56
2019-05-14T07:32:19.207Z,9.97
2019-05-14T07:37:25.567Z,10.10
2019-05-14T07:42:33.182Z,9.58
2019-05-14T07:47:40.754Z,8.65
2019-05-14T07:52:49.715Z,9.33
2019-05-14T07:57:55.506Z,9.69
2019-05-14T08:03:03.143Z,12.27
2019-05-14T08:08:10.744Z,13.49
2019-05-14T08:13:19.067Z,10.64
2019-05-14T08:18:25.547Z,10.38
2019-05-14T08:23:33.210Z,9.84
2019-05-14T08:28:40.784Z,12.05
2019-05-14T08:33:49.060Z,11.41
2019-05-14T08:38:55.537Z,10.49
2019-05-14T08:44:03.198Z,10.49
2019-05-14T08:49:10.812Z,12.74
2019-05-14T08:54:18.910Z,9.34
2019-05-14T08:59:28.498Z,10.02
2019-05-14T09:04:33.412Z,10.46
2019-05-14T09:09:41.063Z,11.22
2019-05-14T09:14:48.721Z,10.82
2019-05-14T09:20:05.726Z,10.61
2019-05-14T09:25:03.525Z,9.30
2019-05-14T09:30:11.156Z,10.42
2019-05-14T09:35:19.004Z,8.47
2019-05-14T09:40:28.890Z,10.20
2019-05-14T09:45:33.648Z,10.93
2019-05-14T09:50:41.260Z,10.65
2019-05-14T09:55:49.235Z,9.34
2019-05-14T10:00:56.013Z,9.71
2019-05-14T10:06:03.650Z,8.47
2019-05-14T10:11:11.275Z,9.77
2019-05-14T10:16:19.190Z,8.43
2019-05-14T10:21:29.086Z,7.58
2019-05-14T10:26:33.751Z,8.56
2019-05-14T10:31:41.340Z,8.24
2019-05-14T10:36:49.003Z,10.94
2019-05-14T10:41:56.593Z,10.89
2019-05-14T10:47:04.354Z,7.91
2019-05-14T10:52:11.962Z,8.63
2019-05-14T10:57:19.611Z,8.83
2019-05-14T11:02:29.201Z,11.21
2019-05-14T11:07:34.380Z,10.49
2019-05-14T11:12:41.999Z,9.51
2019-05-14T11:17:49.687Z,9.76
2019-05-14T11:22:58.448Z,8.75
2019-05-14T11:28:04.483Z,8.27
2019-05-14T11:33:12.055Z,9.34
2019-05-14T11:38:31.876Z,10.11
2019-05-14T11:43:28.682Z,10.51
2019-05-14T11:48:34.029Z,9.22
2019-05-14T11:53:41.621Z,8.70
2019-05-14T11:58:49.278Z,8.82
2019-05-14T12:03:59.573Z,8.92
2019-05-14T12:09:04.087Z,14.52
2019-05-14T12:14:11.724Z,8.91
2019-05-14T12:19:19.349Z,8.84
2019-05-14T12:24:29.009Z,8.73
2019-05-14T12:29:34.151Z,9.00
2019-05-14T12:34:41.736Z,8.23
2019-05-14T12:39:49.406Z,7.46
2019-05-14T12:44:58.606Z,8.18
2019-05-14T12:50:04.169Z,8.24
2019-05-14T12:55:11.769Z,10.44
2019-05-14T13:00:19.436Z,7.13
2019-05-14T13:05:29.313Z,7.64
2019-05-14T13:10:34.227Z,9.39
2019-05-14T13:15:41.814Z,8.49
2019-05-14T13:20:49.462Z,7.91
2019-05-14T13:25:58.837Z,9.40
2019-05-14T13:31:04.237Z,8.42
2019-05-14T13:36:11.842Z,8.64
2019-05-14T13:41:19.557Z,6.96
2019-05-14T13:46:28.703Z,7.05
2019-05-14T13:51:34.295Z,7.39
2019-05-14T13:56:41.891Z,7.54
2019-05-14T14:01:49.667Z,7.25
2019-05-14T14:06:59.069Z,8.44
2019-05-14T14:12:04.597Z,6.93
2019-05-14T14:17:12.215Z,7.74
2019-05-14T14:22:19.994Z,8.28
2019-05-14T14:27:29.955Z,7.41
2019-05-14T14:32:34.762Z,8.68
2019-05-14T14:37:42.391Z,8.82
2019-05-14T14:42:50.050Z,7.69
2019-05-14T14:48:01.030Z,10.49
2019-05-14T14:53:04.818Z,7.95
2019-05-14T14:58:12.412Z,6.77
2019-05-14T15:03:21.123Z,7.96
2019-05-14T15:08:29.392Z,7.26
2019-05-14T15:13:34.381Z,6.68
2019-05-14T15:18:42.005Z,7.54
2019-05-14T15:24:05.547Z,6.90
2019-05-14T15:28:58.384Z,7.62
2019-05-14T15:34:04.050Z,7.80
2019-05-14T15:39:11.644Z,7.89
2019-05-14T15:44:19.688Z,8.57
2019-05-14T15:49:28.382Z,9.04
2019-05-14T15:54:42.945Z,6.61
2019-05-14T15:59:40.747Z,6.45
2019-05-14T16:04:48.411Z,6.84
2019-05-14T16:09:56.015Z,6.40
2019-05-14T16:15:03.674Z,6.73
2019-05-14T16:20:11.321Z,6.84
2019-05-14T16:25:19.122Z,6.74
2019-05-14T16:30:28.663Z,8.10
2019-05-14T16:35:33.783Z,6.21
2019-05-14T16:40:41.366Z,7.29
2019-05-14T16:45:49.248Z,6.09
2019-05-14T16:50:58.419Z,5.98
2019-05-14T16:56:03.791Z,5.85
2019-05-14T17:01:11.366Z,8.23
2019-05-14T17:06:19.049Z,5.35
2019-05-14T17:11:28.341Z,5.40
2019-05-14T17:16:33.768Z,6.15
2019-05-14T17:21:41.362Z,4.53
2019-05-14T17:26:49.084Z,7.08
2019-05-14T17:31:56.675Z,6.06
2019-05-14T17:37:04.303Z,6.65
2019-05-14T17:42:12.021Z,6.55
2019-05-14T17:47:19.567Z,4.89
2019-05-14T17:52:30.001Z,5.18
2019-05-14T17:57:35.655Z,6.15
2019-05-14T18:02:41.493Z,6.35
2019-05-14T18:07:49.238Z,6.74
2019-05-14T18:12:59.897Z,5.17
2019-05-14T18:18:04.014Z,5.08
2019-05-14T18:23:11.840Z,5.28
2019-05-14T18:28:18.816Z,5.49
2019-05-14T18:33:30.778Z,4.96
2019-05-14T18:38:33.646Z,6.39
2019-05-14T18:43:41.260Z,6.12
2019-05-14T18:48:49.005Z,5.28
2019-05-14T18:53:58.411Z,6.10
2019-05-14T18:59:03.710Z,6.00
2019-05-14T19:04:11.303Z,4.52
2019-05-14T19:09:18.971Z,4.67
2019-05-14T19:14:29.069Z,4.16
2019-05-14T19:19:33.853Z,4.09
2019-05-14T19:24:41.555Z,5.66
2019-05-14T19:29:49.257Z,3.91
2019-05-14T19:34:56.854Z,5.65
2019-05-14T19:40:04.545Z,5.67
2019-05-14T19:45:12.328Z,6.16
2019-05-14T19:50:20.014Z,4.38
2019-05-14T19:55:28.899Z,5.54
2019-05-14T20:00:34.957Z,5.06
2019-05-14T20:05:42.596Z,5.65
2019-05-14T20:10:50.391Z,9.57
2019-05-14T20:15:59.053Z,6.34
2019-05-14T20:21:05.292Z,5.20
2019-05-14T20:26:12.896Z,5.54
2019-05-14T20:31:20.605Z,5.78
2019-05-14T20:36:28.260Z,7.79
2019-05-14T20:41:38.254Z,6.46
2019-05-14T20:46:43.038Z,5.21
2019-05-14T20:51:50.699Z,5.85
2019-05-14T20:56:58.702Z,5.39
2019-05-14T21:02:05.602Z,6.17
2019-05-14T21:07:13.232Z,7.14
2019-05-14T21:12:20.963Z,5.59
2019-05-14T21:17:28.610Z,9.98
2019-05-14T21:22:36.307Z,7.03
2019-05-14T21:27:48.326Z,6.54
2019-05-14T21:32:51.146Z,7.09
2019-05-14T21:37:59.346Z,6.43
2019-05-14T21:43:06.083Z,7.41
2019-05-14T21:48:13.726Z,6.67
2019-05-14T21:53:21.383Z,8.06
2019-05-14T21:58:29.291Z,7.26
2019-05-14T22:03:36.718Z,8.45
2019-05-14T22:08:44.333Z,8.55
2019-05-14T22:13:52.000Z,6.37
2019-05-14T22:18:59.637Z,7.00
2019-05-14T22:24:07.449Z,7.82
2019-05-14T22:29:15.055Z,6.86
2019-05-14T22:34:22.749Z,6.63
2019-05-14T22:39:30.377Z,8.47
2019-05-14T22:44:38.098Z,7.28
2019-05-14T22:49:45.711Z,7.55
2019-05-14T22:54:53.401Z,7.07
2019-05-14T23:00:01.055Z,7.38
2019-05-14T23:05:08.771Z,8.64
2019-05-14T23:10:18.207Z,6.76
2019-05-14T23:15:23.629Z,6.94
2019-05-14T23:20:31.261Z,6.36
2019-05-14T23:25:39.058Z,7.77
2019-05-14T23:30:48.164Z,8.10
2019-05-14T23:35:53.771Z,8.19
2019-05-14T23:41:01.404Z,8.68
2019-05-14T23:46:09.609Z,8.83
2019-05-14T23:51:18.076Z,8.11
2019-05-14T23:56:23.445Z,8.99
